createdAt,value
2023-04-04T00:00:35.518Z,65
2023-04-04T00:01:42.331Z,65
2023-04-04T00:02:49.330Z,65
2023-04-04T00:03:56.965Z,65
2023-04-04T00:05:02.679Z,65
2023-04-04T00:06:09.648Z,65
2023-04-04T00:07:16.385Z,65
2023-04-04T00:08:23.152Z,65
2023-04-04T00:09:29.850Z,65
2023-04-04T00:10:36.566Z,65
2023-04-04T00:11:43.459Z,65
2023-04-04T00:12:50.184Z,65
2023-04-04T00:13:56.956Z,65
2023-04-04T00:15:03.726Z,65
2023-04-04T00:16:10.712Z,65
2023-04-04T00:17:17.508Z,66
2023-04-04T00:18:24.327Z,65
2023-04-04T00:19:31.187Z,65
2023-04-04T00:20:38.312Z,65
2023-04-04T00:21:44.671Z,66
2023-04-04T00:22:51.499Z,66
2023-04-04T00:23:58.325Z,66
2023-04-04T00:25:05.234Z,66
2023-04-04T00:26:12.121Z,66
2023-04-04T00:27:18.891Z,66
2023-04-04T00:28:25.828Z,66
2023-04-04T00:29:32.713Z,66
2023-04-04T00:30:39.751Z,66
2023-04-04T00:31:46.227Z,66
2023-04-04T00:32:53.098Z,66
2023-04-04T00:33:59.860Z,66
2023-04-04T00:35:06.715Z,67
2023-04-04T00:36:13.496Z,67
2023-04-04T00:37:20.197Z,67
2023-04-04T00:38:27.015Z,67
2023-04-04T00:39:33.844Z,67
2023-04-04T00:40:40.917Z,67
2023-04-04T00:41:47.510Z,67
2023-04-04T00:42:54.322Z,67
2023-04-04T00:44:01.066Z,67
2023-04-04T00:45:08.134Z,67
2023-04-04T00:46:15.153Z,67
2023-04-04T00:47:21.755Z,67
2023-04-04T00:48:28.574Z,67
2023-04-04T00:49:35.338Z,67
2023-04-04T00:50:42.465Z,67
2023-04-04T00:51:49.071Z,67
2023-04-04T00:52:55.913Z,67
2023-04-04T00:54:02.589Z,68
2023-04-04T00:55:09.469Z,68
2023-04-04T00:56:16.279Z,68
2023-04-04T00:57:23.084Z,68
2023-04-04T00:58:29.883Z,68
2023-04-04T00:59:36.574Z,67
2023-04-04T01:00:43.380Z,68
2023-04-04T01:01:50.252Z,67
2023-04-04T01:02:57.102Z,68
2023-04-04T01:04:03.879Z,67
2023-04-04T01:05:10.568Z,67
2023-04-04T01:06:17.355Z,68
2023-04-04T01:07:24.156Z,68
2023-04-04T01:08:31.004Z,67
2023-04-04T01:09:37.773Z,68
2023-04-04T01:10:44.564Z,68
2023-04-04T01:11:51.356Z,68
2023-04-04T01:12:58.122Z,68
2023-04-04T01:14:04.976Z,68
2023-04-04T01:15:11.719Z,68
2023-04-04T01:16:18.524Z,69
2023-04-04T01:17:25.244Z,68
2023-04-04T01:18:32.071Z,68
2023-04-04T01:19:38.886Z,69
2023-04-04T01:20:48.175Z,69
2023-04-04T01:22:05.090Z,69
2023-04-04T01:23:11.861Z,69
2023-04-04T01:24:18.703Z,69
2023-04-04T01:25:25.478Z,69
2023-04-04T01:26:34.915Z,69
2023-04-04T01:27:41.701Z,69
2023-04-04T01:28:48.460Z,69
2023-04-04T01:29:55.126Z,69
2023-04-04T01:31:01.993Z,69
2023-04-04T01:32:08.743Z,68
2023-04-04T01:33:21.625Z,69
2023-04-04T01:34:31.555Z,69
2023-04-04T01:35:46.218Z,69
2023-04-04T01:36:53.013Z,69
2023-04-04T01:38:09.965Z,69
2023-04-04T01:39:21.885Z,69
2023-04-04T01:40:31.763Z,69
2023-04-04T01:41:38.589Z,69
2023-04-04T01:42:45.361Z,69
2023-04-04T01:43:52.108Z,69
2023-04-04T01:44:58.897Z,69
2023-04-04T01:46:05.723Z,69
2023-04-04T01:47:12.511Z,69
2023-04-04T01:48:19.358Z,69
2023-04-04T01:49:26.106Z,69
2023-04-04T01:50:32.832Z,68
2023-04-04T01:51:39.614Z,68
2023-04-04T01:52:46.368Z,69
2023-04-04T01:53:53.275Z,68
2023-04-04T01:54:59.964Z,69
2023-04-04T01:56:06.711Z,69
2023-04-04T01:57:13.605Z,68
2023-04-04T01:58:20.349Z,69
2023-04-04T01:59:27.262Z,69
2023-04-04T02:00:33.921Z,69
2023-04-04T02:01:40.859Z,70
2023-04-04T02:02:47.701Z,70
2023-04-04T02:03:54.418Z,69
2023-04-04T02:05:01.151Z,69
2023-04-04T02:06:08.067Z,69
2023-04-04T02:07:14.785Z,69
2023-04-04T02:08:21.716Z,69
2023-04-04T02:09:28.596Z,69
2023-04-04T02:10:35.268Z,70
2023-04-04T02:11:42.004Z,69
2023-04-04T02:12:48.804Z,69
2023-04-04T02:13:58.592Z,69
2023-04-04T02:15:05.583Z,69
2023-04-04T02:16:12.540Z,69
2023-04-04T02:17:19.280Z,69
2023-04-04T02:18:26.032Z,69
2023-04-04T02:19:32.777Z,70
2023-04-04T02:20:39.787Z,70
2023-04-04T02:21:46.532Z,70
2023-04-04T02:22:53.318Z,70
2023-04-04T02:24:00.081Z,70
2023-04-04T02:25:06.907Z,70
2023-04-04T02:26:13.787Z,70
2023-04-04T02:27:20.631Z,70
2023-04-04T02:28:27.370Z,70
2023-04-04T02:29:34.282Z,70
2023-04-04T02:30:41.304Z,71
2023-04-04T02:31:48.062Z,70
2023-04-04T02:32:54.885Z,70
2023-04-04T02:34:01.648Z,70
2023-04-04T02:35:08.372Z,70
2023-04-04T02:36:15.176Z,70
2023-04-04T02:37:21.952Z,70
2023-04-04T02:38:28.769Z,71
2023-04-04T02:39:35.557Z,71
2023-04-04T02:40:42.615Z,71
2023-04-04T02:41:49.076Z,70
2023-04-04T02:42:55.935Z,70
2023-04-04T02:44:02.645Z,70
2023-04-04T02:45:09.487Z,70
2023-04-04T02:46:21.480Z,70
2023-04-04T02:47:23.051Z,71
2023-04-04T02:48:29.842Z,71
2023-04-04T02:49:36.661Z,71
2023-04-04T02:50:43.902Z,71
2023-04-04T02:51:50.204Z,70
2023-04-04T02:52:56.929Z,71
2023-04-04T02:54:03.817Z,70
2023-04-04T02:55:10.698Z,71
2023-04-04T02:56:17.562Z,71
2023-04-04T02:57:24.226Z,70
2023-04-04T02:58:31.067Z,70
2023-04-04T02:59:37.971Z,71
2023-04-04T03:00:44.895Z,71
2023-04-04T03:01:56.853Z,71
2023-04-04T03:03:03.809Z,71
2023-04-04T03:04:10.444Z,71
2023-04-04T03:05:17.208Z,71
2023-04-04T03:06:23.966Z,70
2023-04-04T03:07:30.816Z,70
2023-04-04T03:08:37.759Z,70
2023-04-04T03:09:44.511Z,71
2023-04-04T03:10:51.232Z,71
2023-04-04T03:11:58.122Z,71
2023-04-04T03:13:04.924Z,71
2023-04-04T03:14:11.822Z,71
2023-04-04T03:15:18.596Z,72
2023-04-04T03:16:25.436Z,71
2023-04-04T03:17:32.169Z,71
2023-04-04T03:18:38.945Z,71
2023-04-04T03:19:45.796Z,71
2023-04-04T03:20:52.556Z,70
2023-04-04T03:21:59.289Z,71
2023-04-04T03:23:06.030Z,71
2023-04-04T03:24:12.853Z,71
2023-04-04T03:25:19.881Z,71
2023-04-04T03:26:26.682Z,71
2023-04-04T03:27:33.469Z,71
2023-04-04T03:28:40.222Z,71
2023-04-04T03:29:47.040Z,72
2023-04-04T03:30:53.866Z,72
2023-04-04T03:32:00.724Z,72
2023-04-04T03:33:07.483Z,72
2023-04-04T03:34:14.286Z,72
2023-04-04T03:35:21.026Z,72
2023-04-04T03:36:27.815Z,72
2023-04-04T03:37:34.620Z,73
2023-04-04T03:38:41.450Z,72
2023-04-04T03:39:48.224Z,72
2023-04-04T03:40:55.034Z,72
2023-04-04T03:42:04.613Z,72
2023-04-04T03:43:11.486Z,72
2023-04-04T03:44:18.403Z,73
2023-04-04T03:45:25.150Z,73
2023-04-04T03:46:33.165Z,73
2023-04-04T03:47:38.807Z,73
2023-04-04T03:48:45.670Z,73
2023-04-04T03:49:52.531Z,73
2023-04-04T03:50:59.347Z,73
2023-04-04T03:52:06.209Z,73
2023-04-04T03:53:13.008Z,73
2023-04-04T03:54:19.780Z,73
2023-04-04T03:55:26.548Z,73
2023-04-04T03:56:33.307Z,73
2023-04-04T03:57:40.100Z,73
2023-04-04T03:58:46.973Z,73
2023-04-04T03:59:53.780Z,73
2023-04-04T04:01:00.722Z,73
2023-04-04T04:02:07.549Z,73
2023-04-04T04:03:16.353Z,73
2023-04-04T04:04:21.207Z,73
2023-04-04T04:05:27.894Z,73
2023-04-04T04:06:34.782Z,73
2023-04-04T04:07:41.557Z,73
2023-04-04T04:08:48.396Z,73
2023-04-04T04:09:55.255Z,74
2023-04-04T04:11:01.964Z,74
2023-04-04T04:12:08.812Z,74
2023-04-04T04:13:15.608Z,74
2023-04-04T04:14:22.442Z,74
2023-04-04T04:15:29.251Z,73
2023-04-04T04:16:36.238Z,74
2023-04-04T04:17:43.021Z,74
2023-04-04T04:18:49.740Z,74
2023-04-04T04:19:56.561Z,75
2023-04-04T04:21:03.327Z,74
2023-04-04T04:22:10.195Z,74
2023-04-04T04:23:17.096Z,74
2023-04-04T04:24:23.937Z,74
2023-04-04T04:25:30.802Z,74
2023-04-04T04:26:37.566Z,75
2023-04-04T04:27:44.393Z,75
2023-04-04T04:28:51.233Z,75
2023-04-04T04:29:58.056Z,75
2023-04-04T04:31:04.827Z,75
2023-04-04T04:32:11.640Z,74
2023-04-04T04:33:18.440Z,74
2023-04-04T04:34:25.364Z,74
2023-04-04T04:35:32.080Z,74
2023-04-04T04:36:41.751Z,75
2023-04-04T04:37:48.481Z,75
2023-04-04T04:38:55.268Z,74
2023-04-04T04:40:02.191Z,75
2023-04-04T04:41:09.273Z,75
2023-04-04T04:42:16.107Z,75
2023-04-04T04:43:22.896Z,75
2023-04-04T04:44:29.640Z,75
2023-04-04T04:45:36.463Z,75
2023-04-04T04:46:43.260Z,75
2023-04-04T04:47:50.098Z,75
2023-04-04T04:48:56.904Z,75
2023-04-04T04:50:03.685Z,75
2023-04-04T04:51:10.694Z,75
2023-04-04T04:52:17.533Z,76
2023-04-04T04:53:24.303Z,75
2023-04-04T04:54:31.040Z,75
2023-04-04T04:55:37.806Z,75
2023-04-04T04:56:44.534Z,75
2023-04-04T04:57:51.353Z,75
2023-04-04T04:58:58.134Z,75
2023-04-04T05:00:05.141Z,75
2023-04-04T05:01:12.255Z,75
2023-04-04T05:02:18.993Z,75
2023-04-04T05:03:25.943Z,75
2023-04-04T05:04:32.642Z,75
2023-04-04T05:05:39.397Z,75
2023-04-04T05:06:46.197Z,75
2023-04-04T05:07:53.021Z,75
2023-04-04T05:08:59.834Z,74
2023-04-04T05:10:06.652Z,75
2023-04-04T05:11:13.540Z,74
2023-04-04T05:12:20.362Z,74
2023-04-04T05:13:27.119Z,74
2023-04-04T05:14:33.974Z,74
2023-04-04T05:15:40.779Z,73
2023-04-04T05:16:48.886Z,73
2023-04-04T05:17:54.450Z,74
2023-04-04T05:19:01.281Z,74
2023-04-04T05:20:08.224Z,73
2023-04-04T05:21:15.024Z,73
2023-04-04T05:22:21.832Z,73
2023-04-04T05:23:28.645Z,73
2023-04-04T05:24:35.499Z,73
2023-04-04T05:25:42.324Z,73
2023-04-04T05:26:54.195Z,73
2023-04-04T05:28:01.093Z,73
2023-04-04T05:29:07.857Z,73
2023-04-04T05:30:14.621Z,73
2023-04-04T05:31:21.460Z,73
2023-04-04T05:32:28.308Z,72
2023-04-04T05:33:35.003Z,72
2023-04-04T05:34:41.780Z,73
2023-04-04T05:35:48.641Z,72
2023-04-04T05:36:55.274Z,72
2023-04-04T05:38:02.015Z,72
2023-04-04T05:39:08.852Z,72
2023-04-04T05:40:15.588Z,71
2023-04-04T05:41:22.374Z,71
2023-04-04T05:42:29.179Z,71
2023-04-04T05:43:35.961Z,71
2023-04-04T05:44:42.736Z,71
2023-04-04T05:45:49.566Z,70
2023-04-04T05:46:56.339Z,70
2023-04-04T05:48:03.186Z,70
2023-04-04T05:49:10.021Z,70
2023-04-04T05:50:16.905Z,70
2023-04-04T05:51:23.583Z,69
2023-04-04T05:52:30.410Z,69
2023-04-04T05:53:37.207Z,69
2023-04-04T05:54:44.022Z,69
2023-04-04T05:55:50.940Z,69
2023-04-04T05:56:57.817Z,69
2023-04-04T05:58:04.587Z,69
2023-04-04T05:59:11.463Z,68
2023-04-04T06:00:18.222Z,68
2023-04-04T06:01:24.966Z,68
2023-04-04T06:02:32.002Z,68
2023-04-04T06:03:38.746Z,68
2023-04-04T06:04:45.432Z,68
2023-04-04T06:05:52.270Z,68
2023-04-04T06:06:59.076Z,67
2023-04-04T06:08:05.909Z,67
2023-04-04T06:09:12.685Z,67
2023-04-04T06:10:19.541Z,66
2023-04-04T06:11:26.363Z,66
2023-04-04T06:12:33.141Z,66
2023-04-04T06:13:40.030Z,66
2023-04-04T06:14:46.801Z,66
2023-04-04T06:15:53.651Z,66
2023-04-04T06:17:00.411Z,65
2023-04-04T06:18:07.259Z,65
2023-04-04T06:19:14.161Z,64
2023-04-04T06:20:20.861Z,64
2023-04-04T06:21:27.721Z,64
2023-04-04T06:22:34.506Z,64
2023-04-04T06:23:41.302Z,64
2023-04-04T06:24:48.208Z,63
2023-04-04T06:25:54.989Z,63
2023-04-04T06:27:01.815Z,63
2023-04-04T06:28:08.632Z,62
2023-04-04T06:29:15.546Z,62
2023-04-04T06:30:22.347Z,62
2023-04-04T06:31:29.197Z,62
2023-04-04T06:32:35.962Z,61
2023-04-04T06:33:42.667Z,61
2023-04-04T06:34:49.580Z,60
2023-04-04T06:35:56.392Z,60
2023-04-04T06:37:03.307Z,59
2023-04-04T06:38:10.125Z,60
2023-04-04T06:39:16.922Z,60
2023-04-04T06:40:23.735Z,59
2023-04-04T06:41:30.584Z,60
2023-04-04T06:42:37.346Z,60
2023-04-04T06:43:44.099Z,60
2023-04-04T06:44:50.903Z,60
2023-04-04T06:45:57.864Z,60
2023-04-04T06:47:04.776Z,59
2023-04-04T06:48:11.474Z,59
2023-04-04T06:49:18.242Z,59
2023-04-04T06:50:24.990Z,59
2023-04-04T06:51:31.810Z,59
2023-04-04T06:52:39.807Z,58
2023-04-04T06:53:45.494Z,58
2023-04-04T06:54:52.242Z,58
2023-04-04T06:55:59.069Z,58
2023-04-04T06:57:05.973Z,58
2023-04-04T06:58:12.929Z,58
2023-04-04T06:59:19.823Z,58
2023-04-04T07:00:26.779Z,58
2023-04-04T07:01:33.607Z,57
2023-04-04T07:02:40.548Z,58
2023-04-04T07:03:47.304Z,57
2023-04-04T07:04:56.860Z,57
2023-04-04T07:06:03.654Z,57
2023-04-04T07:07:10.462Z,57
2023-04-04T07:08:17.293Z,56
2023-04-04T07:09:29.045Z,57
2023-04-04T07:10:30.855Z,56
2023-04-04T07:11:37.660Z,56
2023-04-04T07:12:44.424Z,56
2023-04-04T07:13:51.213Z,56
2023-04-04T07:14:58.125Z,55
2023-04-04T07:16:05.120Z,54
2023-04-04T07:17:21.790Z,54
2023-04-04T07:18:18.566Z,54
2023-04-04T07:19:25.392Z,54
2023-04-04T07:20:32.323Z,54
2023-04-04T07:21:39.334Z,54
2023-04-04T07:22:46.070Z,54
2023-04-04T07:23:52.822Z,54
2023-04-04T07:24:59.603Z,55
2023-04-04T07:26:06.522Z,54
2023-04-04T07:27:13.442Z,54
2023-04-04T07:28:20.195Z,54
2023-04-04T07:29:26.958Z,54
2023-04-04T07:30:33.832Z,54
2023-04-04T07:31:40.737Z,54
2023-04-04T07:32:47.590Z,54
2023-04-04T07:33:54.372Z,54
2023-04-04T07:35:01.192Z,54
2023-04-04T07:36:10.989Z,54
2023-04-04T07:37:17.738Z,54
2023-04-04T07:38:24.557Z,54
2023-04-04T07:39:31.472Z,54
2023-04-04T07:40:38.465Z,55
2023-04-04T07:41:45.043Z,54
2023-04-04T07:42:51.862Z,54
2023-04-04T07:43:58.694Z,54
2023-04-04T07:45:05.481Z,54
2023-04-04T07:46:12.434Z,54
2023-04-04T07:47:19.217Z,53
2023-04-04T07:48:25.993Z,53
2023-04-04T07:49:32.885Z,52
2023-04-04T07:50:40.062Z,53
2023-04-04T07:51:46.617Z,52
2023-04-04T07:52:53.413Z,52
2023-04-04T07:54:00.190Z,51
2023-04-04T07:55:07.116Z,52
2023-04-04T07:56:14.015Z,52
2023-04-04T07:57:20.807Z,52
2023-04-04T07:58:27.533Z,51
2023-04-04T07:59:34.291Z,52
2023-04-04T08:00:41.372Z,51
2023-04-04T08:01:47.978Z,51
2023-04-04T08:02:54.853Z,50
2023-04-04T08:04:04.404Z,51
2023-04-04T08:05:11.081Z,51
2023-04-04T08:06:17.878Z,51
2023-04-04T08:07:24.871Z,51
2023-04-04T08:08:31.821Z,52
2023-04-04T08:09:38.610Z,51
2023-04-04T08:10:45.393Z,52
2023-04-04T08:11:52.180Z,52
2023-04-04T08:12:59.184Z,52
2023-04-04T08:14:06.058Z,52
2023-04-04T08:15:12.794Z,52
2023-04-04T08:16:19.661Z,53
2023-04-04T08:17:26.503Z,53
2023-04-04T08:18:33.246Z,52
2023-04-04T08:19:40.036Z,51
2023-04-04T08:20:46.819Z,51
2023-04-04T08:21:53.705Z,51
2023-04-04T08:23:00.405Z,51
2023-04-04T08:24:07.339Z,51
2023-04-04T08:25:13.980Z,50
2023-04-04T08:26:20.732Z,51
2023-04-04T08:27:27.629Z,51
2023-04-04T08:28:34.524Z,51
2023-04-04T08:29:41.277Z,50
2023-04-04T08:30:48.059Z,50
2023-04-04T08:31:57.804Z,51
2023-04-04T08:33:06.192Z,50
2023-04-04T08:34:11.295Z,50
2023-04-04T08:35:18.056Z,50
2023-04-04T08:36:24.839Z,50
2023-04-04T08:37:31.602Z,50
2023-04-04T08:38:41.240Z,50
2023-04-04T08:39:48.163Z,49
2023-04-04T08:40:55.076Z,48
2023-04-04T08:42:01.868Z,48
2023-04-04T08:43:08.615Z,47
2023-04-04T08:44:15.376Z,47
2023-04-04T08:45:22.255Z,47
2023-04-04T08:46:29.074Z,47
2023-04-04T08:47:35.909Z,47
2023-04-04T08:48:42.673Z,47
2023-04-04T08:49:49.430Z,47
2023-04-04T08:50:56.288Z,48
2023-04-04T08:52:03.073Z,48
2023-04-04T08:53:09.824Z,47
2023-04-04T08:54:16.568Z,47
2023-04-04T08:55:23.341Z,47
2023-04-04T08:56:30.124Z,46
2023-04-04T08:57:36.847Z,45
2023-04-04T08:58:43.711Z,47
2023-04-04T08:59:50.515Z,46
2023-04-04T09:00:57.381Z,46
2023-04-04T09:02:04.278Z,45
2023-04-04T09:03:14.114Z,46
2023-04-04T09:04:20.880Z,45
2023-04-04T09:05:27.649Z,46
2023-04-04T09:06:34.393Z,45
2023-04-04T09:07:41.307Z,45
2023-04-04T09:08:48.117Z,45
2023-04-04T09:09:54.855Z,44
2023-04-04T09:11:01.674Z,45
2023-04-04T09:12:08.498Z,45
2023-04-04T09:13:16.362Z,45
2023-04-04T09:14:22.151Z,45
2023-04-04T09:15:28.885Z,45
2023-04-04T09:16:35.689Z,44
2023-04-04T09:17:42.496Z,44
2023-04-04T09:18:49.301Z,44
2023-04-04T09:19:56.084Z,44
2023-04-04T09:21:05.794Z,45
2023-04-04T09:22:12.545Z,45
2023-04-04T09:23:19.268Z,45
2023-04-04T09:24:26.219Z,45
2023-04-04T09:25:47.419Z,45
2023-04-04T09:26:52.718Z,45
2023-04-04T09:27:59.392Z,45
2023-04-04T09:29:06.174Z,45
2023-04-04T09:30:13.018Z,45
2023-04-04T09:31:19.783Z,45
2023-04-04T09:32:26.537Z,45
2023-04-04T09:33:33.309Z,44
2023-04-04T09:34:40.200Z,45
2023-04-04T09:35:49.665Z,44
2023-04-04T09:37:01.540Z,44
2023-04-04T09:38:08.372Z,44
2023-04-04T09:39:15.165Z,44
2023-04-04T09:40:22.023Z,45
2023-04-04T09:41:28.770Z,45
2023-04-04T09:42:35.725Z,45
2023-04-04T09:43:42.408Z,45
2023-04-04T09:44:49.251Z,46
2023-04-04T09:45:58.774Z,45
2023-04-04T09:47:05.510Z,46
2023-04-04T09:48:22.448Z,46
2023-04-04T09:49:34.297Z,47
2023-04-04T09:50:41.765Z,47
2023-04-04T09:51:50.624Z,47
2023-04-04T09:52:57.483Z,47
2023-04-04T09:54:04.324Z,46
2023-04-04T09:55:11.251Z,47
2023-04-04T09:56:18.089Z,47
2023-04-04T09:57:24.829Z,47
2023-04-04T09:58:31.645Z,47
2023-04-04T09:59:41.222Z,46
2023-04-04T10:00:48.089Z,47
2023-04-04T10:01:55.050Z,47
2023-04-04T10:03:01.896Z,47
2023-04-04T10:04:08.756Z,47
2023-04-04T10:05:15.453Z,47
2023-04-04T10:06:22.295Z,46
2023-04-04T10:07:29.178Z,46
2023-04-04T10:08:36.042Z,46
2023-04-04T10:09:42.759Z,46
2023-04-04T10:10:59.085Z,45
2023-04-04T10:11:59.140Z,45
2023-04-04T10:13:10.969Z,45
2023-04-04T10:14:17.792Z,46
2023-04-04T10:15:24.538Z,46
2023-04-04T10:16:31.329Z,46
2023-04-04T10:17:38.260Z,46
2023-04-04T10:18:44.923Z,46
2023-04-04T10:19:51.735Z,46
2023-04-04T10:21:08.141Z,46
2023-04-04T10:22:05.283Z,45
2023-04-04T10:23:12.058Z,47
2023-04-04T10:24:18.790Z,47
2023-04-04T10:25:25.559Z,47
2023-04-04T10:26:32.362Z,46
2023-04-04T10:27:39.126Z,47
2023-04-04T10:28:45.841Z,47
2023-04-04T10:29:52.712Z,47
2023-04-04T10:31:05.552Z,47
2023-04-04T10:32:06.304Z,46
2023-04-04T10:33:13.137Z,46
2023-04-04T10:34:27.741Z,46
2023-04-04T10:35:39.570Z,46
2023-04-04T10:36:46.378Z,45
2023-04-04T10:37:55.746Z,46
2023-04-04T10:39:02.560Z,46
2023-04-04T10:40:17.419Z,47
2023-04-04T10:41:24.121Z,46
2023-04-04T10:42:31.123Z,46
2023-04-04T10:43:37.921Z,46
2023-04-04T10:44:47.699Z,46
2023-04-04T10:45:54.504Z,46
2023-04-04T10:47:01.220Z,46
2023-04-04T10:48:18.290Z,47
2023-04-04T10:49:25.017Z,46
2023-04-04T10:50:31.802Z,47
2023-04-04T10:51:49.117Z,46
2023-04-04T10:52:48.068Z,47
2023-04-04T10:53:54.921Z,47
2023-04-04T10:55:01.959Z,46
2023-04-04T10:56:08.902Z,46
2023-04-04T10:57:15.653Z,46
2023-04-04T10:58:22.439Z,47
2023-04-04T10:59:29.331Z,46
2023-04-04T11:00:36.095Z,46
2023-04-04T11:01:50.750Z,46
2023-04-04T11:03:00.283Z,46
2023-04-04T11:04:06.837Z,46
2023-04-04T11:05:18.635Z,45
2023-04-04T11:06:28.179Z,45
2023-04-04T11:07:43.139Z,45
2023-04-04T11:08:49.743Z,45
2023-04-04T11:09:59.461Z,44
2023-04-04T11:11:12.885Z,45
2023-04-04T11:12:12.968Z,45
2023-04-04T11:13:19.949Z,46
2023-04-04T11:14:26.816Z,46
2023-04-04T11:15:33.628Z,46
2023-04-04T11:16:50.621Z,46
2023-04-04T11:17:57.422Z,46
2023-04-04T11:19:04.175Z,45
2023-04-04T11:20:10.989Z,46
2023-04-04T11:21:17.744Z,45
2023-04-04T11:22:24.594Z,45
2023-04-04T11:23:31.448Z,45
2023-04-04T11:24:48.292Z,45
2023-04-04T11:25:55.097Z,45
2023-04-04T11:27:01.866Z,45
2023-04-04T11:28:08.652Z,45
2023-04-04T11:29:15.448Z,44
2023-04-04T11:30:25.209Z,44
2023-04-04T11:31:32.187Z,44
2023-04-04T11:32:56.528Z,45
2023-04-04T11:33:54.012Z,44
2023-04-04T11:35:08.199Z,44
2023-04-04T11:36:14.977Z,45
2023-04-04T11:37:31.872Z,45
2023-04-04T11:38:38.724Z,45
2023-04-04T11:39:45.491Z,45
2023-04-04T11:40:54.978Z,45
2023-04-04T11:42:01.765Z,46
2023-04-04T11:43:16.616Z,45
2023-04-04T11:44:23.445Z,46
2023-04-04T11:45:30.312Z,45
2023-04-04T11:46:37.237Z,45
2023-04-04T11:47:43.988Z,45
2023-04-04T11:48:50.796Z,46
2023-04-04T11:49:57.659Z,45
2023-04-04T11:51:04.537Z,46
2023-04-04T11:52:11.438Z,46
2023-04-04T11:53:18.253Z,45
2023-04-04T11:54:25.030Z,46
2023-04-04T11:55:31.826Z,46
2023-04-04T11:56:46.766Z,46
2023-04-04T11:57:53.495Z,45
2023-04-04T11:59:08.908Z,45
2023-04-04T12:00:07.013Z,45
2023-04-04T12:01:14.155Z,45
2023-04-04T12:02:20.982Z,45
2023-04-04T12:03:27.779Z,45
2023-04-04T12:04:35.799Z,45
2023-04-04T12:05:41.547Z,45
2023-04-04T12:06:48.087Z,45
2023-04-04T12:07:54.891Z,45
2023-04-04T12:09:01.663Z,45
2023-04-04T12:10:08.572Z,45
2023-04-04T12:11:15.385Z,45
2023-04-04T12:12:22.180Z,45
2023-04-04T12:13:28.904Z,45
2023-04-04T12:14:35.663Z,45
2023-04-04T12:15:42.969Z,45
2023-04-04T12:16:49.300Z,45
2023-04-04T12:17:56.138Z,45
2023-04-04T12:19:02.894Z,45
2023-04-04T12:20:09.736Z,44
2023-04-04T12:21:16.648Z,45
2023-04-04T12:22:23.388Z,45
2023-04-04T12:23:30.244Z,45
2023-04-04T12:24:40.150Z,45
2023-04-04T12:25:46.942Z,45
2023-04-04T12:26:53.750Z,45
2023-04-04T12:28:00.601Z,45
2023-04-04T12:29:07.334Z,45
2023-04-04T12:30:14.177Z,46
2023-04-04T12:31:21.051Z,46
2023-04-04T12:32:27.866Z,46
2023-04-04T12:33:34.719Z,46
2023-04-04T12:34:41.612Z,47
2023-04-04T12:35:48.371Z,47
2023-04-04T12:36:55.164Z,46
2023-04-04T12:38:01.963Z,46
2023-04-04T12:39:08.779Z,47
2023-04-04T12:40:15.610Z,46
2023-04-04T12:41:22.418Z,46
2023-04-04T12:42:29.246Z,46
2023-04-04T12:43:36.032Z,46
2023-04-04T12:44:42.958Z,46
2023-04-04T12:45:49.824Z,47
2023-04-04T12:46:56.657Z,47
2023-04-04T12:48:03.419Z,47
2023-04-04T12:49:15.237Z,47
2023-04-04T12:50:21.998Z,48
2023-04-04T12:51:28.928Z,48
2023-04-04T12:52:38.517Z,47
2023-04-04T12:53:45.336Z,47
2023-04-04T12:55:07.275Z,47
2023-04-04T12:56:02.006Z,46
2023-04-04T12:57:08.840Z,46
2023-04-04T12:58:15.548Z,46
2023-04-04T12:59:27.459Z,46
2023-04-04T13:00:34.191Z,46
2023-04-04T13:01:40.963Z,46
2023-04-04T13:02:47.853Z,45
2023-04-04T13:03:54.693Z,46
2023-04-04T13:05:01.460Z,45
2023-04-04T13:06:08.475Z,45
2023-04-04T13:07:15.316Z,45
2023-04-04T13:08:25.119Z,45
2023-04-04T13:09:32.000Z,45
2023-04-04T13:10:38.751Z,45
2023-04-04T13:11:55.591Z,45
2023-04-04T13:13:02.493Z,45
2023-04-04T13:14:10.494Z,46
2023-04-04T13:15:16.047Z,46
2023-04-04T13:16:22.793Z,45
2023-04-04T13:17:32.267Z,45
2023-04-04T13:18:46.958Z,45
2023-04-04T13:19:53.675Z,45
2023-04-04T13:21:00.441Z,45
2023-04-04T13:22:07.270Z,45
2023-04-04T13:23:14.092Z,46
2023-04-04T13:24:20.933Z,46
2023-04-04T13:25:27.656Z,46
2023-04-04T13:26:34.398Z,46
2023-04-04T13:27:41.335Z,46
2023-04-04T13:28:48.222Z,46
2023-04-04T13:29:55.016Z,45
2023-04-04T13:31:01.850Z,46
2023-04-04T13:32:08.664Z,45
2023-04-04T13:33:15.609Z,45
2023-04-04T13:34:22.383Z,46
2023-04-04T13:35:29.127Z,46
2023-04-04T13:36:35.902Z,46
2023-04-04T13:37:42.629Z,46
2023-04-04T13:38:49.547Z,46
2023-04-04T13:39:56.494Z,46
2023-04-04T13:41:03.298Z,46
2023-04-04T13:42:10.040Z,45
2023-04-04T13:43:17.692Z,45
2023-04-04T13:44:26.021Z,45
2023-04-04T13:45:31.495Z,46
2023-04-04T13:46:38.445Z,46
2023-04-04T13:47:45.309Z,46
2023-04-04T13:48:52.171Z,46
2023-04-04T13:49:58.932Z,46
2023-04-04T13:51:05.725Z,46
2023-04-04T13:52:12.551Z,46
2023-04-04T13:53:19.415Z,46
2023-04-04T13:54:26.235Z,46
2023-04-04T13:55:33.108Z,46
2023-04-04T13:56:39.877Z,46
2023-04-04T13:57:46.553Z,46
2023-04-04T13:58:53.386Z,46
2023-04-04T14:00:00.192Z,46
2023-04-04T14:01:07.299Z,47
2023-04-04T14:02:14.028Z,46
2023-04-04T14:03:20.847Z,47
2023-04-04T14:04:27.613Z,46
2023-04-04T14:05:34.388Z,46
2023-04-04T14:06:41.216Z,46
2023-04-04T14:07:47.919Z,47
2023-04-04T14:08:54.673Z,46
2023-04-04T14:10:01.472Z,46
2023-04-04T14:11:08.516Z,46
2023-04-04T14:12:15.273Z,46
2023-04-04T14:13:22.008Z,46
2023-04-04T14:14:28.772Z,46
2023-04-04T14:15:35.701Z,46
2023-04-04T14:16:42.335Z,46
2023-04-04T14:17:49.210Z,46
2023-04-04T14:18:55.995Z,47
2023-04-04T14:20:02.805Z,46
2023-04-04T14:21:09.895Z,47
2023-04-04T14:22:16.728Z,47
2023-04-04T14:23:23.447Z,47
2023-04-04T14:24:30.198Z,47
2023-04-04T14:25:37.042Z,47
2023-04-04T14:26:43.882Z,47
2023-04-04T14:27:50.730Z,47
2023-04-04T14:28:57.671Z,47
2023-04-04T14:30:04.445Z,47
2023-04-04T14:31:11.626Z,47
2023-04-04T14:32:18.375Z,48
2023-04-04T14:33:25.212Z,47
2023-04-04T14:34:32.081Z,48
2023-04-04T14:35:39.201Z,47
2023-04-04T14:36:45.593Z,47
2023-04-04T14:37:57.882Z,47
2023-04-04T14:39:07.791Z,47
2023-04-04T14:40:14.654Z,47
2023-04-04T14:41:21.476Z,47
2023-04-04T14:42:28.441Z,47
2023-04-04T14:43:35.440Z,47
2023-04-04T14:44:42.385Z,47
2023-04-04T14:45:49.623Z,47
2023-04-04T14:46:57.046Z,47
2023-04-04T14:48:03.958Z,47
2023-04-04T14:49:10.971Z,47
2023-04-04T14:50:17.777Z,47
2023-04-04T14:51:24.490Z,47
2023-04-04T14:52:31.212Z,46
2023-04-04T14:53:38.118Z,46
2023-04-04T14:54:44.893Z,46
2023-04-04T14:55:51.646Z,46
2023-04-04T14:56:58.470Z,46
2023-04-04T14:58:05.303Z,46
2023-04-04T14:59:12.154Z,46
2023-04-04T15:00:19.040Z,46
2023-04-04T15:01:25.933Z,46
2023-04-04T15:02:32.752Z,46
2023-04-04T15:03:39.514Z,47
2023-04-04T15:04:46.244Z,47
2023-04-04T15:05:53.024Z,46
2023-04-04T15:06:59.745Z,46
2023-04-04T15:08:06.580Z,46
2023-04-04T15:09:13.356Z,47
2023-04-04T15:10:20.193Z,46
2023-04-04T15:11:26.998Z,47
2023-04-04T15:12:33.745Z,47
2023-04-04T15:13:40.541Z,46
2023-04-04T15:14:47.277Z,47
2023-04-04T15:15:54.094Z,47
2023-04-04T15:17:00.978Z,47
2023-04-04T15:18:07.790Z,46
2023-04-04T15:19:14.585Z,46
2023-04-04T15:20:21.384Z,46
2023-04-04T15:21:28.126Z,46
2023-04-04T15:22:35.060Z,46
2023-04-04T15:23:42.000Z,47
2023-04-04T15:24:48.718Z,47
2023-04-04T15:25:55.474Z,47
2023-04-04T15:27:02.288Z,47
2023-04-04T15:28:09.141Z,47
2023-04-04T15:29:15.981Z,47
2023-04-04T15:30:22.715Z,47
2023-04-04T15:31:29.506Z,47
2023-04-04T15:32:36.395Z,48
2023-04-04T15:33:43.612Z,47
2023-04-04T15:34:50.410Z,47
2023-04-04T15:35:57.168Z,47
2023-04-04T15:37:04.087Z,47
2023-04-04T15:38:10.829Z,47
2023-04-04T15:39:17.626Z,47
2023-04-04T15:40:24.337Z,47
2023-04-04T15:41:31.155Z,47
2023-04-04T15:42:37.924Z,47
2023-04-04T15:43:44.704Z,47
2023-04-04T15:44:51.505Z,47
2023-04-04T15:46:00.206Z,47
2023-04-04T15:47:06.877Z,47
2023-04-04T15:48:13.668Z,47
2023-04-04T15:49:20.402Z,47
2023-04-04T15:50:27.286Z,47
2023-04-04T15:51:34.086Z,47
2023-04-04T15:52:40.791Z,47
2023-04-04T15:53:47.535Z,47
2023-04-04T15:54:54.310Z,47
2023-04-04T15:56:01.283Z,47
2023-04-04T15:57:08.146Z,48
2023-04-04T15:58:14.948Z,47